Kezdőlap
METAR-TAF:

METAR-TAF

Repülőterek :

Kingman, Arizona, Amerikai Egyesült Államok

földrajzi szélesség: 35-15-28N, földrajzi hosszúság: 113-55-59W, magasság: 1050 m

Jelenlegi meteorológiai megfigyelések

A jelentés 22 perccel ezelõtt készült, 12:51 UTC
Keleti szél 10 kt
Hőmérséklet 17°C
Páratartalom 20%
Légköri nyomás 1009 hPa
Látótávolság: 16.1 km
Derült ég

METAR: KIGM 181251Z AUTO 10010KT 10SM CLR 17/M06 A2981 RMK AO2 SLP023 T01671061

Idő: 06:13 (13:13 UTC)


TAF: hiányzik

Meteorológiai megfigyelések és előrejelzések több, mint 4000 repülőtéren (METAR és TAF jelentéseket).

A térképen piros és sárga pontok jelzik az elérhető meteorológiai állomásokat.

Mozgassa az egeret a pont fölött, hogy megjelenjen az állomás neve.

Azután kattintson az időjárási megfigyelések és előrejelzések megtekintéséhez.

A térkép megváltoztatása: kattintson a fekete keresztel jelölt zöld gombra ráközelítéshez, a vonallal jelölt zöld gombra távolításhoz, vagy a zöld nyilakra a szomszédos térképek eléréséhez.


METAR-TAF: